Nearby METAR Reports

 

EGVO - Odiham Raf, United Kingdom
Distance from station: E 6mi, 10km
Updated: Fri, 05-Mar-2021 8:02pm GMT
unable to load EGVO data RC=
unable to load EGVO data RC=
 
EGLF - Farnborough, United Kingdom
Distance from station: ENE 15mi, 23km
Updated: Fri, 05-Mar-2021 7:50pm GMT
Clear
Clear
 Wind from NE
Wind: NE 8 mph , 13 km/h
Temperature: 37°F , 3°C
Wind Chill: 31°F , -1°C
Dew Point: 25°F , -4°C
Humidity: 60%
Barometer: 30.5 inHg , 1033 hPa
Summary: Clear
Visibility: greater than 7 miles , 10 km
2021/03/05 19:50 EGLF 051950Z 04007KT CAVOK 03/M04 Q1033
 
EGVP - Middle Wallop, United Kingdom
Distance from station: WSW 22mi, 35km
Updated: Fri, 05-Mar-2021 6:50pm GMT
Overcast
Overcast
 Wind from NE
Wind: NE 9 mph , 15 km/h
Temperature: 39°F , 4°C
Wind Chill: 33°F , 1°C
Dew Point: 25°F , -4°C
Humidity: 56%
Barometer: 30.5 inHg , 1033 hPa
Clouds: Overcast
Visibility: 6 miles , 10 km
Cloud details: Overcast 3900 ft
2021/03/05 18:50 EGVP 051850Z AUTO 05008KT 9999 OVC039/// 04/M04 Q1033
EGHI - Southampton Wx C, United Kingdom
Distance from station: SSW 23mi, 37km
Updated: Fri, 05-Mar-2021 6:20pm GMT
NOT Current
Partly Cloudy
Partly Cloudy
 Wind from NE
Wind: NE 6 mph , 9 km/h
Temperature: 39°F , 4°C
Wind Chill: 35°F , 2°C
Dew Point: 25°F , -4°C
Humidity: 56%
Barometer: 30.5 inHg , 1033 hPa
Clouds: Partly Cloudy
Visibility: 6 miles , 10 km
Cloud details: Partly Cloudy 4500 ft
2021/03/05 18:20 EGHI 051820Z 04005KT 010V070 9999 SCT045 04/M04 Q1033
 
EGUB - Benson Raf, United Kingdom
Distance from station: N 26mi, 42km
Updated: Fri, 05-Mar-2021 6:50pm GMT
Overcast
Overcast
 Wind from NE
Wind: NE 12 mph , 19 km/h
Temperature: 39°F , 4°C
Wind Chill: 32°F , 0°C
Dew Point: 27°F , -3°C
Humidity: 61%
Barometer: 30.5 inHg , 1033 hPa
Clouds: Overcast
Visibility: 6 miles , 10 km
Cloud details: Overcast 4100 ft
2021/03/05 18:50 EGUB 051850Z AUTO 05010KT 9999 // OVC041/// 04/M03 Q1033
EGDM - Boscombe Down, United Kingdom
Distance from station: W 29mi, 46km
Updated: Fri, 05-Mar-2021 6:50pm GMT
Overcast
Overcast
 Wind from ENE
Wind: ENE 8 mph , 13 km/h
Temperature: 39°F , 4°C
Wind Chill: 33°F , 1°C
Dew Point: 25°F , -4°C
Humidity: 56%
Barometer: 30.5 inHg , 1033 hPa
Clouds: Overcast
Visibility: 6 miles , 10 km
Cloud details: Overcast 3900 ft
2021/03/05 18:50 EGDM 051850Z AUTO 06007KT 9999 OVC039/// 04/M04 Q1033

Metar display script from Saratoga-Weather.org